Time;durP1;ratioP1;P1;durP2;ratioP2;P2;SDS_P1;SDS_P2;PMS_P1;PMS_P2;Temp;Humidity;BMP_temperature;BMP_pressure;BME280_temperature;BME280_humidity;BME280_pressure;Samples;Min_cycle;Max_cycle;Signal;HPM_P1;HPM_P2
2022/01/26 00:06:04;;;;;;;38.30;21.40;;;5.80;99.90;;;;;;4964946;28;20484;-82
2022/01/26 00:08:35;;;;;;;41.13;21.60;;;5.50;99.90;;;;;;4983872;28;20483;-84
2022/01/26 00:11:05;;;;;;;31.93;19.07;;;5.50;99.90;;;;;;4960154;28;20490;-82
2022/01/26 00:13:35;;;;;;;34.10;20.60;;;5.30;99.90;;;;;;4957543;28;20888;-84
2022/01/26 00:16:22;;;;;;;36.93;19.57;;;5.30;99.90;;;;;;4962180;28;20460;-85
2022/01/26 00:19:22;;;;;;;32.33;18.93;;;5.40;99.90;;;;;;4966952;28;20461;-85
2022/01/26 00:22:04;;;;;;;32.50;20.70;;;5.40;99.90;;;;;;4970296;28;20487;-84
2022/01/26 00:38:52;;;;;;;37.73;21.10;;;5.60;99.90;;;;;;4967249;28;20465;-82
2022/01/26 00:41:37;;;;;;;36.97;21.00;;;5.60;99.90;;;;;;4975510;28;20512;-83
2022/01/26 00:44:06;;;;;;;34.00;20.30;;;5.50;99.90;;;;;;4974639;28;20463;-84
2022/01/26 00:46:35;;;;;;;34.20;19.57;;;5.50;99.90;;;;;;4971226;28;20463;-83
2022/01/26 00:49:04;;;;;;;31.43;18.63;;;5.50;99.90;;;;;;4973069;28;20595;-83
2022/01/26 00:51:31;;;;;;;36.10;19.40;;;5.50;99.90;;;;;;4969300;28;21103;-83
2022/01/26 00:54:05;;;;;;;31.73;18.10;;;5.40;99.90;;;;;;4967556;28;20495;-85
2022/01/26 00:56:33;;;;;;;28.13;16.97;;;5.40;99.90;;;;;;4969185;28;20478;-83
2022/01/26 00:59:01;;;;;;;27.50;17.80;;;5.30;99.90;;;;;;4974949;28;20532;-82
2022/01/26 01:01:28;;;;;;;27.47;16.33;;;5.20;99.90;;;;;;4984529;28;20490;-82
2022/01/26 01:03:59;;;;;;;29.57;16.77;;;5.20;99.90;;;;;;4970601;28;21073;-83
2022/01/26 01:06:48;;;;;;;28.77;16.47;;;5.20;99.90;;;;;;4970977;28;20461;-83
2022/01/26 01:09:20;;;;;;;29.33;18.10;;;5.20;99.90;;;;;;4971038;28;20856;-83
2022/01/26 01:12:03;;;;;;;26.50;15.70;;;5.10;99.90;;;;;;4968618;28;20511;-83
2022/01/26 01:14:42;;;;;;;28.53;15.80;;;5.20;99.90;;;;;;4978550;28;20471;-84
2022/01/26 01:17:39;;;;;;;36.63;16.87;;;5.30;99.90;;;;;;4989351;28;20460;-86
2022/01/26 01:31:53;;;;;;;28.13;16.23;;;5.10;99.90;;;;;;4968029;28;20578;-83
2022/01/26 01:34:37;;;;;;;26.73;16.80;;;5.10;99.90;;;;;;4971495;28;20544;-82
2022/01/26 01:37:33;;;;;;;27.23;15.40;;;5.10;99.90;;;;;;4971263;28;20466;-85
2022/01/26 01:40:24;;;;;;;28.87;17.50;;;5.20;99.90;;;;;;4967298;28;20472;-83
2022/01/26 01:43:03;;;;;;;33.97;18.20;;;5.50;99.90;;;;;;4963931;28;20483;-84
2022/01/26 01:45:56;;;;;;;33.00;18.37;;;5.10;99.90;;;;;;4960030;28;20456;-84
2022/01/26 01:48:34;;;;;;;30.93;18.97;;;5.20;99.90;;;;;;4964692;28;20496;-86
2022/01/26 01:51:57;;;;;;;32.53;19.23;;;5.20;99.90;;;;;;4988999;28;20476;-82
2022/01/26 01:55:29;;;;;;;33.37;18.40;;;5.20;99.90;;;;;;4992632;28;20452;-82
2022/01/26 01:58:30;;;;;;;35.70;20.03;;;5.20;99.90;;;;;;4988293;28;20494;-82
2022/01/26 02:04:45;;;;;;;32.00;19.87;;;5.30;99.90;;;;;;4991691;28;20459;-82
2022/01/26 02:07:48;;;;;;;30.93;18.57;;;5.30;99.90;;;;;;4989038;28;20487;-82
2022/01/26 02:11:10;;;;;;;31.10;18.60;;;5.30;99.90;;;;;;4965844;28;20491;-84
2022/01/26 02:16:31;;;;;;;36.40;20.00;;;5.20;99.90;;;;;;4968610;28;20500;-85
2022/01/26 03:05:58;;;;;;;43.00;23.93;;;5.90;99.90;;;;;;4989529;28;20467;-84
2022/01/26 03:08:44;;;;;;;40.63;24.57;;;5.10;99.90;;;;;;5001942;28;20481;-84
2022/01/26 03:11:27;;;;;;;39.67;23.40;;;5.30;99.90;;;;;;4992503;28;20503;-83
2022/01/26 03:20:01;;;;;;;40.83;23.53;;;5.40;99.90;;;;;;4985197;28;20464;-80
2022/01/26 03:28:36;;;;;;;;;;;;;;;;;;;;;
2022/01/26 03:33:56;;;;;;;47.80;25.90;;;5.10;99.90;;;;;;4974982;28;20464;-82
2022/01/26 03:39:51;;;;;;;50.27;28.07;;;5.80;99.90;;;;;;4939831;28;20884;-83
2022/01/26 03:42:27;;;;;;;47.70;24.60;;;5.90;99.90;;;;;;4978318;28;20483;-83
2022/01/26 03:45:09;;;;;;;45.60;24.87;;;5.70;99.90;;;;;;4971160;28;20460;-84
2022/01/26 03:47:41;;;;;;;49.40;25.60;;;5.30;99.90;;;;;;4983477;28;20460;-83
2022/01/26 03:50:33;;;;;;;47.10;25.60;;;5.70;99.90;;;;;;4970595;28;20524;-82
2022/01/26 03:53:03;;;;;;;47.67;24.40;;;5.20;99.90;;;;;;4977500;28;20456;-82
2022/01/26 03:55:47;;;;;;;49.43;24.83;;;5.10;99.90;;;;;;4980333;28;20463;-83
2022/01/26 03:58:19;;;;;;;44.37;23.73;;;5.20;99.90;;;;;;4971527;28;20528;-82
2022/01/26 04:00:48;;;;;;;47.53;25.47;;;5.20;99.90;;;;;;4988404;28;20472;-83
2022/01/26 04:03:31;;;;;;;44.03;22.87;;;5.20;99.90;;;;;;4977841;28;20457;-81
2022/01/26 04:06:16;;;;;;;45.33;24.30;;;5.20;99.90;;;;;;4986689;28;20485;-84
2022/01/26 04:09:38;;;;;;;48.80;24.80;;;5.20;99.90;;;;;;4985063;28;20589;-80
2022/01/26 04:12:27;;;;;;;49.20;24.63;;;5.30;99.90;;;;;;4975002;28;20478;-82
2022/01/26 04:15:32;;;;;;;45.23;20.17;;;5.40;99.90;;;;;;4977264;28;20889;-85
2022/01/26 04:18:31;;;;;;;37.57;20.17;;;5.30;99.90;;;;;;5021064;23;20502;-84
2022/01/26 04:21:17;;;;;;;40.07;19.03;;;5.30;99.90;;;;;;4987577;28;20483;-82
2022/01/26 04:24:04;;;;;;;39.77;20.20;;;5.50;99.90;;;;;;4990255;28;20750;-83
2022/01/26 04:27:01;;;;;;;44.80;22.03;;;5.50;99.90;;;;;;5005010;28;20450;-81
2022/01/26 04:29:47;;;;;;;40.07;21.27;;;5.00;99.90;;;;;;5006235;28;20506;-82
2022/01/26 04:33:08;;;;;;;44.57;21.53;;;5.20;99.90;;;;;;5004986;28;20498;-82
2022/01/26 04:36:05;;;;;;;;;;;;;;;;;;;;;
2022/01/26 04:39:08;;;;;;;46.50;23.67;;;5.10;99.90;;;;;;4991338;28;20546;-84
2022/01/26 04:42:03;;;;;;;45.73;23.10;;;5.70;99.90;;;;;;4988126;28;20502;-82
2022/01/26 04:48:31;;;;;;;54.30;24.10;;;5.20;99.90;;;;;;4992109;28;20826;-83
2022/01/26 04:51:10;;;;;;;46.10;23.93;;;5.20;99.90;;;;;;4995766;28;20467;-84
2022/01/26 04:53:50;;;;;;;51.53;25.67;;;5.70;99.90;;;;;;4993922;28;20964;-80
2022/01/26 04:56:36;;;;;;;46.03;25.30;;;5.70;99.90;;;;;;4994140;28;20999;-84
2022/01/26 04:59:39;;;;;;;54.30;27.73;;;5.20;99.90;;;;;;4982892;28;20452;-85
2022/01/26 05:02:20;;;;;;;53.10;27.40;;;5.10;99.90;;;;;;4977343;28;20563;-83
2022/01/26 05:05:01;;;;;;;52.20;25.80;;;4.80;99.90;;;;;;4989532;28;20467;-82
2022/01/26 05:07:30;;;;;;;49.97;26.13;;;4.80;99.90;;;;;;4996858;28;20991;-82
2022/01/26 05:10:14;;;;;;;55.97;28.50;;;5.50;99.90;;;;;;4990204;28;20492;-83
2022/01/26 05:16:08;;;;;;;53.77;27.37;;;5.20;99.90;;;;;;4979683;28;20543;-82
2022/01/26 05:18:53;;;;;;;59.73;26.53;;;5.10;99.90;;;;;;4988826;28;20535;-85
2022/01/26 05:21:32;;;;;;;53.60;26.13;;;4.70;99.90;;;;;;4995651;28;20561;-83
2022/01/26 05:24:14;;;;;;;48.57;24.90;;;5.00;99.90;;;;;;4988466;28;20518;-84
2022/01/26 05:26:51;;;;;;;51.07;27.87;;;5.00;99.90;;;;;;4993410;28;20463;-84
2022/01/26 05:29:34;;;;;;;50.50;26.47;;;5.00;99.90;;;;;;4994977;28;20479;-83
2022/01/26 05:32:07;;;;;;;48.90;27.90;;;5.00;99.90;;;;;;4993017;28;20480;-85
2022/01/26 05:34:44;;;;;;;55.07;27.90;;;4.90;99.90;;;;;;4996209;28;20542;-84
2022/01/26 05:37:14;;;;;;;53.03;27.47;;;4.70;99.90;;;;;;4989778;28;20531;-84
2022/01/26 05:39:51;;;;;;;61.60;27.80;;;5.10;99.90;;;;;;4981416;28;20559;-83
2022/01/26 05:42:37;;;;;;;56.37;28.90;;;5.50;99.90;;;;;;4991383;28;20545;-83
2022/01/26 05:45:36;;;;;;;56.53;28.97;;;5.20;99.90;;;;;;4988345;28;20524;-82
2022/01/26 05:48:13;;;;;;;60.13;28.13;;;4.90;99.90;;;;;;4993779;28;20494;-79
2022/01/26 05:51:04;;;;;;;55.17;29.17;;;5.30;99.90;;;;;;4982858;28;20575;-82
2022/01/26 05:53:48;;;;;;;56.97;27.80;;;5.00;99.90;;;;;;4978832;28;20463;-83
2022/01/26 05:56:30;;;;;;;55.03;28.00;;;5.00;99.90;;;;;;4975244;28;20463;-87
2022/01/26 05:59:22;;;;;;;67.60;29.27;;;4.80;99.90;;;;;;4982059;28;20456;-83
2022/01/26 06:02:04;;;;;;;62.27;29.67;;;5.60;99.90;;;;;;4976706;28;20486;-84
2022/01/26 06:05:01;;;;;;;59.90;29.17;;;5.10;99.90;;;;;;4965344;28;20463;-86
2022/01/26 06:07:28;;;;;;;62.80;29.60;;;5.00;99.90;;;;;;4990774;28;20467;-83
2022/01/26 06:10:08;;;;;;;60.70;29.27;;;5.00;99.90;;;;;;4993654;28;20549;-85
2022/01/26 06:12:38;;;;;;;65.20;32.00;;;5.00;99.90;;;;;;4992183;28;20530;-84
2022/01/26 06:15:19;;;;;;;59.77;29.33;;;5.20;99.90;;;;;;4989365;28;20468;-84
2022/01/26 06:18:03;;;;;;;61.03;27.97;;;5.10;99.90;;;;;;4981878;28;20467;-85
2022/01/26 06:20:48;;;;;;;67.43;33.47;;;5.00;99.90;;;;;;4991346;28;20511;-83
2022/01/26 06:23:31;;;;;;;69.80;29.83;;;5.00;99.90;;;;;;4991887;28;20949;-85
2022/01/26 06:26:04;;;;;;;62.47;30.20;;;5.10;99.90;;;;;;4979204;28;20460;-84
2022/01/26 06:29:03;;;;;;;60.80;30.20;;;4.90;99.90;;;;;;4979928;28;20459;-84
2022/01/26 06:31:41;;;;;;;68.33;31.00;;;5.30;99.90;;;;;;4982082;28;20491;-83
2022/01/26 06:34:28;;;;;;;63.43;32.23;;;4.80;99.90;;;;;;4983665;28;20530;-82
2022/01/26 06:37:06;;;;;;;65.00;33.27;;;4.90;99.90;;;;;;4984180;28;20548;-85
2022/01/26 06:39:47;;;;;;;63.07;29.73;;;5.00;99.90;;;;;;4993223;28;20539;-83
2022/01/26 06:42:47;;;;;;;62.13;30.00;;;5.00;99.90;;;;;;4979653;28;20589;-85
2022/01/26 06:45:23;;;;;;;60.40;30.80;;;4.90;99.90;;;;;;4987273;28;20468;-83
2022/01/26 06:51:03;;;;;;;63.67;30.90;;;4.80;99.90;;;;;;4990183;28;20490;-84
2022/01/26 06:53:42;;;;;;;56.83;30.10;;;4.90;99.90;;;;;;4994295;28;20966;-82
2022/01/26 06:56:17;;;;;;;68.77;32.40;;;4.90;99.90;;;;;;4989124;28;20474;-85
2022/01/26 06:59:29;;;;;;;56.87;28.00;;;4.80;99.90;;;;;;4992570;28;20545;-83
2022/01/26 07:02:39;;;;;;;65.30;33.53;;;5.00;99.90;;;;;;4981351;28;20493;-85
2022/01/26 07:05:23;;;;;;;65.60;29.80;;;5.00;99.90;;;;;;4986025;28;20455;-86
2022/01/26 07:07:53;;;;;;;62.57;31.80;;;4.90;99.90;;;;;;4995956;28;20453;-84
2022/01/26 07:10:20;;;;;;;62.70;31.87;;;5.30;99.90;;;;;;4988571;28;20486;-84
2022/01/26 07:12:58;;;;;;;68.90;32.70;;;5.10;99.90;;;;;;4982686;28;21052;-85
2022/01/26 07:22:12;;;;;;;57.60;30.70;;;4.80;99.90;;;;;;4988876;28;20494;-84
2022/01/26 07:24:52;;;;;;;62.53;30.50;;;4.90;99.90;;;;;;4988066;28;20882;-85
2022/01/26 07:27:51;;;;;;;66.90;29.90;;;4.90;99.90;;;;;;4981502;28;20929;-84
2022/01/26 07:30:26;;;;;;;58.57;30.80;;;4.90;99.90;;;;;;4993393;28;20494;-82
2022/01/26 07:33:10;;;;;;;61.57;29.60;;;4.80;99.90;;;;;;4983291;28;20457;-83
2022/01/26 07:35:54;;;;;;;64.63;31.93;;;4.80;99.90;;;;;;4974763;28;20455;-84
2022/01/26 07:38:49;;;;;;;54.30;29.67;;;4.70;99.90;;;;;;4973690;28;20465;-85
2022/01/26 07:41:36;;;;;;;59.17;29.80;;;4.80;99.90;;;;;;4974886;28;20489;-85
2022/01/26 07:44:06;;;;;;;60.60;29.03;;;4.80;99.90;;;;;;4991175;28;21058;-85
2022/01/26 07:46:52;;;;;;;59.33;30.40;;;4.80;99.90;;;;;;4985334;28;20454;-84
2022/01/26 07:49:36;;;;;;;56.80;30.67;;;5.10;99.90;;;;;;5002465;28;20514;-85
2022/01/26 07:52:17;;;;;;;51.07;27.17;;;4.80;99.90;;;;;;4999984;28;20518;-85
2022/01/26 07:54:51;;;;;;;51.73;26.00;;;4.90;99.90;;;;;;5002593;28;20879;-85
2022/01/26 07:57:27;;;;;;;55.80;27.57;;;4.90;99.90;;;;;;4988421;28;20459;-84
2022/01/26 08:00:00;;;;;;;59.87;30.23;;;4.90;99.90;;;;;;5000341;28;20499;-85
2022/01/26 08:02:42;;;;;;;57.43;31.57;;;5.00;99.90;;;;;;4999416;28;20471;-81
2022/01/26 08:05:10;;;;;;;54.77;28.37;;;5.30;99.90;;;;;;4995159;28;20509;-82
2022/01/26 08:07:56;;;;;;;57.10;27.90;;;4.70;99.90;;;;;;4986348;28;20881;-83
2022/01/26 08:10:27;;;;;;;62.07;31.47;;;4.70;99.90;;;;;;4993064;28;20478;-85
2022/01/26 08:13:11;;;;;;;66.53;29.93;;;4.60;99.90;;;;;;4983375;28;20987;-84
2022/01/26 08:15:38;;;;;;;62.17;28.97;;;4.60;99.90;;;;;;4988792;28;20466;-85
2022/01/26 08:18:13;;;;;;;62.97;28.47;;;4.70;99.90;;;;;;4983583;28;20453;-83
2022/01/26 08:21:02;;;;;;;66.37;33.20;;;5.30;99.90;;;;;;4997962;28;20572;-82
2022/01/26 08:24:13;;;;;;;75.50;30.63;;;5.20;99.90;;;;;;4989746;28;20456;-82
2022/01/26 08:26:59;;;;;;;68.23;29.23;;;5.00;99.90;;;;;;4984839;28;20460;-84
2022/01/26 08:29:35;;;;;;;67.10;30.00;;;4.80;99.90;;;;;;4992859;28;20448;-83
2022/01/26 08:32:14;;;;;;;67.30;32.53;;;4.80;99.90;;;;;;4989195;28;20514;-84
2022/01/26 08:35:23;;;;;;;65.60;30.53;;;5.30;99.90;;;;;;5002047;28;20464;-85
2022/01/26 08:38:00;;;;;;;70.73;30.73;;;5.10;99.90;;;;;;4999406;28;20502;-87
2022/01/26 08:40:47;;;;;;;68.37;29.40;;;5.20;99.90;;;;;;5002106;28;20537;-86
2022/01/26 08:43:17;;;;;;;62.17;30.90;;;4.90;99.90;;;;;;5008430;28;20446;-87
2022/01/26 08:45:54;;;;;;;70.87;30.43;;;4.70;99.90;;;;;;5008834;28;20486;-85
2022/01/26 08:48:52;;;;;;;59.57;31.00;;;5.50;99.90;;;;;;5008200;28;20443;-86
2022/01/26 08:51:24;;;;;;;55.70;28.83;;;5.10;99.90;;;;;;4989947;28;20587;-83
2022/01/26 08:53:58;;;;;;;65.10;30.70;;;5.30;99.90;;;;;;4991771;28;20455;-83
2022/01/26 08:56:32;;;;;;;62.23;29.10;;;4.90;99.90;;;;;;4985703;28;20451;-82
2022/01/26 08:59:27;;;;;;;54.97;26.83;;;4.90;99.90;;;;;;4985415;28;20490;-84
2022/01/26 09:02:15;;;;;;;55.73;29.13;;;4.90;99.90;;;;;;4989335;28;20566;-85
2022/01/26 09:05:14;;;;;;;61.43;27.13;;;5.00;99.90;;;;;;4987782;28;20455;-85
2022/01/26 09:07:44;;;;;;;55.63;26.13;;;5.00;99.90;;;;;;4991504;28;20524;-85
2022/01/26 09:10:57;;;;;;;;;;;;;;;;;;;;;
2022/01/26 09:13:47;;;;;;;55.40;28.57;;;5.00;99.90;;;;;;4984325;28;20468;-85
2022/01/26 09:16:21;;;;;;;60.50;27.57;;;5.10;99.90;;;;;;4981240;28;20452;-84
2022/01/26 09:19:03;;;;;;;55.87;26.00;;;5.00;99.90;;;;;;4986406;28;20472;-85
2022/01/26 09:21:34;;;;;;;56.80;27.37;;;4.80;99.90;;;;;;4984432;28;21020;-81
2022/01/26 09:24:18;;;;;;;56.37;26.90;;;5.00;99.90;;;;;;4985203;28;20471;-84
2022/01/26 09:27:16;;;;;;;53.30;25.53;;;5.00;99.90;;;;;;4981944;28;20470;-85
2022/01/26 09:30:03;;;;;;;52.57;25.87;;;5.60;99.90;;;;;;4994008;28;20507;-84
2022/01/26 09:32:34;;;;;;;54.77;27.57;;;5.30;99.90;;;;;;4993684;28;20479;-85
2022/01/26 09:35:13;;;;;;;54.13;25.73;;;5.10;99.90;;;;;;4980780;28;20454;-84
2022/01/26 09:37:49;;;;;;;63.83;28.27;;;4.90;99.90;;;;;;4989376;28;20526;-86
2022/01/26 09:40:23;;;;;;;56.07;28.37;;;4.90;99.90;;;;;;4990413;28;20482;-87
2022/01/26 09:42:57;;;;;;;59.33;28.53;;;5.10;99.90;;;;;;4982100;28;20462;-85
2022/01/26 09:45:42;;;;;;;57.60;26.27;;;5.20;99.90;;;;;;4987432;28;20477;-84
2022/01/26 09:48:25;;;;;;;62.90;28.57;;;5.60;99.90;;;;;;4990780;28;20474;-84
2022/01/26 09:50:55;;;;;;;62.13;29.17;;;5.70;99.90;;;;;;4987192;28;20522;-85
2022/01/26 09:53:30;;;;;;;68.33;32.07;;;5.30;99.90;;;;;;4985882;28;20456;-84
2022/01/26 09:56:11;;;;;;;58.67;29.60;;;5.50;99.90;;;;;;4985584;28;20793;-85
2022/01/26 09:59:04;;;;;;;58.50;27.80;;;5.20;99.90;;;;;;4980988;28;20462;-85
2022/01/26 10:01:46;;;;;;;66.33;29.83;;;4.80;99.90;;;;;;4985440;28;20511;-86
2022/01/26 10:04:56;;;;;;;66.60;28.23;;;4.80;99.90;;;;;;4990954;28;20507;-80
2022/01/26 10:07:52;;;;;;;68.30;30.10;;;5.30;99.90;;;;;;4985205;28;20501;-84
2022/01/26 10:19:29;;;;;;;71.30;33.57;;;4.90;99.90;;;;;;4985360;28;20974;-83
2022/01/26 10:22:01;;;;;;;71.87;31.20;;;5.10;99.90;;;;;;4984921;28;20606;-81
2022/01/26 10:24:47;;;;;;;70.67;30.03;;;5.30;99.90;;;;;;4990279;28;20447;-83
2022/01/26 10:27:44;;;;;;;65.07;27.20;;;5.70;99.90;;;;;;4981508;28;20455;-83
2022/01/26 10:30:15;;;;;;;63.63;29.97;;;4.90;99.90;;;;;;4987402;28;20494;-83
2022/01/26 10:32:52;;;;;;;70.60;32.17;;;5.40;99.90;;;;;;4988801;28;20885;-84
2022/01/26 10:35:21;;;;;;;66.00;28.17;;;5.00;99.90;;;;;;4985501;28;20452;-83
2022/01/26 10:38:01;;;;;;;64.47;30.30;;;4.90;99.90;;;;;;4988234;28;20467;-84
2022/01/26 10:40:38;;;;;;;71.17;28.13;;;5.50;99.90;;;;;;4994200;28;20477;-82
2022/01/26 10:43:14;;;;;;;79.60;32.77;;;5.40;99.90;;;;;;4997800;28;20463;-85
2022/01/26 10:49:04;;;;;;;77.73;32.90;;;5.50;99.90;;;;;;4987311;28;20458;-82
2022/01/26 10:51:54;;;;;;;77.63;29.27;;;5.70;99.90;;;;;;4984151;28;20492;-81
2022/01/26 10:54:39;;;;;;;78.03;31.57;;;5.40;99.90;;;;;;4982747;28;22166;-79
2022/01/26 10:57:20;;;;;;;82.47;32.37;;;5.30;99.90;;;;;;4987834;28;20446;-81
2022/01/26 10:59:56;;;;;;;73.57;30.40;;;5.10;99.90;;;;;;4985187;28;20507;-82
2022/01/26 11:02:29;;;;;;;76.47;31.40;;;5.00;99.90;;;;;;4992006;28;20565;-83
2022/01/26 11:05:08;;;;;;;82.57;33.40;;;5.90;99.90;;;;;;4981896;28;20471;-85
2022/01/26 11:07:58;;;;;;;77.30;33.50;;;5.00;99.90;;;;;;4983326;28;21130;-84
2022/01/26 11:10:39;;;;;;;82.63;32.30;;;5.40;99.90;;;;;;4983429;28;20501;-83
2022/01/26 11:13:07;;;;;;;72.83;30.40;;;5.30;99.90;;;;;;4985335;28;20462;-82
2022/01/26 11:15:49;;;;;;;71.67;31.40;;;6.20;99.90;;;;;;4978435;28;20535;-82
2022/01/26 11:18:22;;;;;;;74.07;30.13;;;5.90;99.90;;;;;;4983915;28;20466;-83
2022/01/26 11:20:52;;;;;;;61.67;28.20;;;5.90;99.90;;;;;;4983540;28;20583;-83
2022/01/26 11:24:08;;;;;;;73.70;29.20;;;5.10;99.90;;;;;;4986472;28;20491;-82
2022/01/26 11:26:45;;;;;;;65.87;28.23;;;5.50;99.90;;;;;;4991517;28;20459;-83
2022/01/26 11:29:18;;;;;;;82.70;34.10;;;5.50;99.90;;;;;;4992314;28;20450;-85
2022/01/26 11:31:46;;;;;;;76.67;30.30;;;5.60;99.90;;;;;;4997882;28;20533;-85
2022/01/26 11:34:29;;;;;;;67.47;31.60;;;5.40;99.90;;;;;;4992456;28;20907;-83
2022/01/26 11:37:18;;;;;;;73.50;28.40;;;4.70;99.90;;;;;;4990618;28;20887;-84
2022/01/26 11:45:26;;;;;;;67.87;29.60;;;5.20;99.90;;;;;;4983081;28;20481;-84
2022/01/26 11:48:09;;;;;;;66.23;29.10;;;5.00;99.90;;;;;;4978192;28;21184;-86
2022/01/26 11:50:47;;;;;;;70.83;27.77;;;5.20;99.90;;;;;;4983073;28;20495;-81
2022/01/26 11:53:25;;;;;;;60.53;28.30;;;5.20;99.90;;;;;;4979160;28;20468;-85
2022/01/26 11:56:07;;;;;;;63.07;27.33;;;5.10;99.90;;;;;;4983484;28;20585;-82
2022/01/26 11:58:41;;;;;;;62.23;28.40;;;5.20;99.90;;;;;;4981040;28;20464;-80
2022/01/26 12:04:11;;;;;;;59.93;25.07;;;4.80;99.90;;;;;;4984099;28;20473;-84
2022/01/26 12:06:59;;;;;;;60.67;28.23;;;5.90;99.90;;;;;;4977445;28;20470;-83
2022/01/26 12:09:43;;;;;;;60.87;28.57;;;5.20;99.90;;;;;;4975073;28;20822;-84
2022/01/26 12:12:19;;;;;;;49.63;23.07;;;5.30;99.90;;;;;;4981882;28;20498;-84
2022/01/26 12:15:03;;;;;;;52.20;24.47;;;5.30;99.90;;;;;;4982945;28;20466;-84
2022/01/26 12:17:40;;;;;;;44.40;21.90;;;5.30;99.90;;;;;;4981563;28;20482;-84
2022/01/26 12:38:34;;;;;;;44.07;20.60;;;6.00;99.90;;;;;;4989709;28;20483;-84
2022/01/26 12:41:30;;;;;;;36.37;18.10;;;5.30;99.90;;;;;;4987464;28;20532;-83
2022/01/26 12:44:11;;;;;;;35.87;18.70;;;5.20;99.90;;;;;;4986833;28;20467;-83
2022/01/26 12:46:47;;;;;;;42.07;21.77;;;5.00;99.90;;;;;;4982088;28;20466;-84
2022/01/26 12:49:31;;;;;;;35.87;18.20;;;5.30;99.90;;;;;;4989134;28;20682;-83
2022/01/26 12:52:12;;;;;;;40.93;18.83;;;5.20;99.90;;;;;;4995672;28;20528;-85
2022/01/26 12:54:55;;;;;;;35.30;18.00;;;5.20;99.90;;;;;;4997094;28;20472;-87
2022/01/26 12:57:27;;;;;;;30.83;15.90;;;5.20;99.90;;;;;;4999838;28;20536;-83
2022/01/26 13:00:11;;;;;;;40.73;18.70;;;6.20;99.90;;;;;;4997818;28;20461;-85
2022/01/26 13:06:45;;;;;;;34.33;18.47;;;5.20;99.90;;;;;;4968177;28;20876;-84
2022/01/26 13:09:47;;;;;;;35.40;18.93;;;5.70;99.90;;;;;;4977987;28;20821;-83
2022/01/26 13:12:16;;;;;;;35.33;17.40;;;5.20;99.90;;;;;;4980738;28;20606;-85
2022/01/26 13:17:48;;;;;;;42.27;18.33;;;5.20;99.90;;;;;;4980593;28;20960;-84
2022/01/26 13:20:35;;;;;;;36.17;18.40;;;5.20;99.90;;;;;;4979391;28;20474;-84
2022/01/26 13:36:56;;;;;;;39.23;20.90;;;5.20;99.90;;;;;;4996633;28;20469;-82
2022/01/26 13:39:53;;;;;;;35.10;17.30;;;5.40;99.90;;;;;;4996741;28;21011;-84
2022/01/26 14:00:25;;;;;;;40.53;19.50;;;5.20;99.90;;;;;;5005716;28;20482;-83
2022/01/26 14:02:51;;;;;;;44.63;21.50;;;5.70;99.90;;;;;;4991982;28;20487;-85
2022/01/26 14:05:31;;;;;;;44.23;22.20;;;5.60;99.90;;;;;;4993243;28;20494;-84
2022/01/26 14:08:06;;;;;;;41.60;21.33;;;5.20;99.90;;;;;;5007098;28;20465;-84
2022/01/26 14:10:49;;;;;;;40.23;20.33;;;5.30;99.90;;;;;;4987832;28;20482;-83
2022/01/26 14:13:32;;;;;;;38.17;21.93;;;5.70;99.90;;;;;;4994214;28;20455;-85
2022/01/26 14:16:16;;;;;;;43.50;20.40;;;5.70;99.90;;;;;;4992155;28;20457;-84
2022/01/26 14:25:02;;;;;;;46.80;22.97;;;5.20;99.90;;;;;;4993587;28;20973;-85
2022/01/26 14:28:31;;;;;;;46.53;21.73;;;5.20;99.90;;;;;;4992354;28;20466;-82
2022/01/26 14:31:27;;;;;;;44.60;20.53;;;5.20;99.90;;;;;;4993835;28;21005;-82
2022/01/26 15:43:54;;;;;;;36.30;19.47;;;5.30;99.90;;;;;;4907791;29;20462;-86
2022/01/26 15:57:56;;;;;;;42.40;19.80;;;5.40;99.90;;;;;;4908683;29;20470;-85
2022/01/26 16:07:37;;;;;;;;;;;;;;;;;;;;;
2022/01/26 16:16:43;;;;;;;40.10;20.47;;;5.30;99.90;;;;;;4925778;28;20480;-84
2022/01/26 16:35:10;;;;;;;46.07;21.17;;;5.40;99.90;;;;;;4995288;28;20490;-83
2022/01/26 17:43:40;;;;;;;33.67;16.70;;;5.30;99.90;;;;;;4957032;28;20471;-86
2022/01/26 18:07:19;;;;;;;30.27;17.13;;;5.30;99.90;;;;;;4953642;28;20498;-85
2022/01/26 18:26:31;;;;;;;32.63;17.50;;;5.10;99.90;;;;;;4960344;28;20471;-86
2022/01/26 18:40:44;;;;;;;32.70;16.90;;;5.60;99.90;;;;;;4977703;28;20462;-84
2022/01/26 18:51:52;;;;;;;34.77;17.10;;;5.50;99.90;;;;;;4961388;28;20499;-84
2022/01/26 18:55:02;;;;;;;32.83;17.23;;;5.30;99.90;;;;;;4956983;28;20484;-83
2022/01/26 18:57:35;;;;;;;30.57;17.23;;;5.20;99.90;;;;;;4977734;28;20559;-84
2022/01/26 19:00:06;;;;;;;32.20;16.43;;;5.10;99.90;;;;;;4959699;28;20467;-83
2022/01/26 19:02:38;;;;;;;25.57;13.43;;;5.00;99.90;;;;;;4960831;28;20898;-83
2022/01/26 19:05:22;;;;;;;25.10;14.17;;;4.90;99.90;;;;;;4955420;28;20522;-83
2022/01/26 19:07:57;;;;;;;24.90;15.00;;;5.00;99.90;;;;;;4961896;28;20507;-84
2022/01/26 19:10:37;;;;;;;31.73;16.30;;;5.10;99.90;;;;;;4959044;28;20470;-83
2022/01/26 19:13:29;;;;;;;26.20;13.90;;;5.30;99.90;;;;;;4972901;28;20560;-83
2022/01/26 19:16:24;;;;;;;29.40;14.83;;;5.20;99.90;;;;;;4988073;28;20502;-85
2022/01/26 19:19:24;;;;;;;25.93;14.67;;;5.40;99.90;;;;;;4963162;28;20455;-83
2022/01/26 19:22:27;;;;;;;24.60;14.40;;;5.20;99.90;;;;;;4979467;28;20459;-84
2022/01/26 19:44:22;;;;;;;22.23;12.40;;;5.10;99.90;;;;;;4977333;28;20972;-85
2022/01/26 19:47:11;;;;;;;21.87;11.80;;;5.60;99.90;;;;;;4974298;28;20487;-85
2022/01/26 19:52:32;;;;;;;20.30;12.23;;;5.20;99.90;;;;;;4972013;28;20578;-85
2022/01/26 19:55:13;;;;;;;26.10;13.63;;;5.20;99.90;;;;;;4965697;28;20455;-84
2022/01/26 19:58:16;;;;;;;19.77;11.60;;;5.30;99.90;;;;;;4973469;28;21098;-84
2022/01/26 20:00:46;;;;;;;22.00;11.80;;;5.10;99.90;;;;;;4973097;28;20453;-86
2022/01/26 20:03:14;;;;;;;21.10;11.97;;;5.10;99.90;;;;;;4974730;28;20455;-84
2022/01/26 20:05:53;;;;;;;22.47;13.60;;;5.40;99.90;;;;;;4969672;28;21268;-82
2022/01/26 20:11:25;;;;;;;22.27;11.77;;;5.70;99.90;;;;;;4970689;28;20982;-82
2022/01/26 20:14:22;;;;;;;20.60;10.93;;;5.20;99.90;;;;;;4974168;28;20482;-85
2022/01/26 20:16:55;;;;;;;21.33;11.77;;;5.40;99.90;;;;;;4976436;28;20516;-82
2022/01/26 20:19:30;;;;;;;20.30;11.10;;;5.20;99.90;;;;;;4974102;28;20463;-86
2022/01/26 20:22:15;;;;;;;22.10;10.33;;;5.10;99.90;;;;;;4975102;28;20515;-84
2022/01/26 20:24:46;;;;;;;23.20;11.60;;;5.10;99.90;;;;;;4975071;28;20502;-84
2022/01/26 20:27:20;;;;;;;18.20;10.40;;;5.30;99.90;;;;;;4978707;28;20491;-86
2022/01/26 20:30:12;;;;;;;22.53;13.13;;;5.30;99.90;;;;;;4973634;28;20498;-83
2022/01/26 20:33:12;;;;;;;25.53;13.73;;;5.30;99.90;;;;;;4977108;28;20558;-84
2022/01/26 20:35:42;;;;;;;23.77;13.00;;;5.40;99.90;;;;;;4973117;28;20553;-83
2022/01/26 20:38:18;;;;;;;30.90;14.50;;;5.40;99.90;;;;;;4975456;28;20921;-85
2022/01/26 20:40:45;;;;;;;29.47;15.30;;;5.30;99.90;;;;;;4974138;28;20462;-83
2022/01/26 20:43:21;;;;;;;27.10;14.20;;;5.40;99.90;;;;;;4979214;28;20473;-84
2022/01/26 20:46:17;;;;;;;28.37;13.40;;;5.40;99.90;;;;;;4974442;28;20476;-85
2022/01/26 20:49:16;;;;;;;29.67;14.70;;;5.30;99.90;;;;;;4977893;28;20445;-83
2022/01/26 20:51:43;;;;;;;30.53;14.10;;;5.20;99.90;;;;;;4975729;28;20485;-85
2022/01/26 20:54:23;;;;;;;32.87;15.80;;;5.30;99.90;;;;;;4969268;28;20480;-83
2022/01/26 20:56:56;;;;;;;26.90;14.47;;;5.20;99.90;;;;;;4976802;28;20565;-83
2022/01/26 20:59:23;;;;;;;31.80;14.30;;;5.10;99.90;;;;;;4974608;28;20505;-83
2022/01/26 21:01:50;;;;;;;30.57;15.67;;;4.90;99.90;;;;;;4973142;28;21056;-85
2022/01/26 21:04:17;;;;;;;35.10;15.93;;;4.90;99.90;;;;;;4975300;28;20456;-83
2022/01/26 21:06:45;;;;;;;27.47;13.50;;;4.80;99.90;;;;;;4973519;28;20486;-87
2022/01/26 21:09:12;;;;;;;32.23;16.13;;;4.70;99.90;;;;;;4971551;28;21264;-84
2022/01/26 21:12:05;;;;;;;31.67;15.50;;;5.10;99.90;;;;;;4973286;28;20462;-83
2022/01/26 21:15:11;;;;;;;33.83;15.63;;;4.90;99.90;;;;;;4971762;28;20551;-83
2022/01/26 21:17:47;;;;;;;31.80;15.37;;;5.30;99.90;;;;;;4974986;28;20486;-84
2022/01/26 21:20:17;;;;;;;30.47;15.30;;;5.20;99.90;;;;;;4972317;28;20466;-81
2022/01/26 21:23:09;;;;;;;33.70;16.27;;;5.40;99.90;;;;;;4976598;28;20482;-86
2022/01/26 21:25:35;;;;;;;37.60;16.70;;;5.50;99.90;;;;;;4973288;28;20542;-83
2022/01/26 21:28:30;;;;;;;29.30;14.90;;;5.30;99.90;;;;;;4973676;28;20505;-82
2022/01/26 21:31:19;;;;;;;29.73;14.80;;;5.20;99.90;;;;;;4981498;28;20461;-82
2022/01/26 21:33:58;;;;;;;33.80;14.67;;;5.20;99.90;;;;;;4983568;28;20484;-84
2022/01/26 21:36:39;;;;;;;42.63;17.10;;;5.20;99.90;;;;;;4989457;28;20473;-87
2022/01/26 21:39:26;;;;;;;37.63;16.87;;;5.10;99.90;;;;;;4981659;28;20444;-84